Time;durP1;ratioP1;P1;durP2;ratioP2;P2;SDS_P1;SDS_P2;PMS_P1;PMS_P2;Temp;Humidity;BMP_temperature;BMP_pressure;BME280_temperature;BME280_humidity;BME280_pressure;Samples;Min_cycle;Max_cycle;Signal;HPM_P1;HPM_P2
2024/01/30 00:01:30;;;;;;;30.40;17.77;;;4.10;99.90;;;;;;4940488;28;20127;-93
2024/01/30 00:04:14;;;;;;;29.33;18.53;;;3.90;99.90;;;;;;4941201;29;20130;-92
2024/01/30 00:06:40;;;;;;;29.02;18.08;;;2.90;99.90;;;;;;4940706;29;20051;-93
2024/01/30 00:09:15;;;;;;;28.83;18.03;;;2.90;99.90;;;;;;4941031;29;20403;-92
2024/01/30 00:11:41;;;;;;;30.23;18.47;;;2.90;99.90;;;;;;4941187;28;20043;-93
2024/01/30 00:14:12;;;;;;;29.03;18.47;;;3.20;99.90;;;;;;4940324;29;20101;-93
2024/01/30 00:16:38;;;;;;;31.87;18.60;;;3.20;99.90;;;;;;4941158;29;20047;-93
2024/01/30 00:19:04;;;;;;;29.13;17.77;;;4.40;99.90;;;;;;4940309;29;20531;-93
2024/01/30 00:21:32;;;;;;;30.70;18.60;;;5.10;99.90;;;;;;4933202;29;20043;-92
2024/01/30 00:23:58;;;;;;;30.43;19.10;;;4.50;99.90;;;;;;4921690;29;20128;-92
2024/01/30 00:26:24;;;;;;;29.80;18.87;;;2.90;99.90;;;;;;4921096;29;20487;-93
2024/01/30 00:28:50;;;;;;;27.93;18.73;;;3.30;99.90;;;;;;4922623;29;20048;-93
2024/01/30 00:31:16;;;;;;;29.73;18.30;;;3.50;99.90;;;;;;4929004;29;20047;-93
2024/01/30 00:33:41;;;;;;;29.03;18.00;;;4.80;99.90;;;;;;4950701;29;20047;-93
2024/01/30 00:36:23;;;;;;;26.73;14.33;;;3.00;99.90;;;;;;4941001;29;20039;-93
2024/01/30 00:38:48;;;;;;;25.83;14.33;;;3.10;99.90;;;;;;4940219;29;20114;-93
2024/01/30 00:41:14;;;;;;;27.27;15.00;;;3.20;99.90;;;;;;4941034;29;20511;-93
2024/01/30 00:43:49;;;;;;;25.77;14.50;;;3.40;99.90;;;;;;4940597;29;20518;-92
2024/01/30 00:46:18;;;;;;;27.07;14.40;;;4.10;99.90;;;;;;4940178;29;20051;-93
2024/01/30 00:48:49;;;;;;;25.13;14.50;;;4.20;99.90;;;;;;4940307;29;20055;-93
2024/01/30 00:51:21;;;;;;;25.10;13.80;;;3.30;99.90;;;;;;4926114;29;20074;-92
2024/01/30 00:53:47;;;;;;;23.20;13.03;;;3.20;99.90;;;;;;4924432;29;20055;-93
2024/01/30 00:56:14;;;;;;;25.47;14.07;;;4.10;99.90;;;;;;4940165;29;20036;-93
2024/01/30 00:58:39;;;;;;;26.20;14.37;;;3.10;99.90;;;;;;4940552;29;20120;-94
2024/01/30 01:01:14;;;;;;;23.83;13.77;;;3.20;99.90;;;;;;4940085;29;20051;-92
2024/01/30 01:03:40;;;;;;;25.37;14.53;;;2.90;99.90;;;;;;4939857;29;20043;-93
2024/01/30 01:06:15;;;;;;;25.47;13.00;;;3.10;99.90;;;;;;4940044;29;20491;-93
2024/01/30 01:08:44;;;;;;;23.80;13.97;;;4.20;99.90;;;;;;4920561;29;20040;-93
2024/01/30 01:11:15;;;;;;;23.53;13.93;;;4.50;99.90;;;;;;4919034;29;20047;-93
2024/01/30 01:13:47;;;;;;;25.13;14.07;;;2.70;99.90;;;;;;4919577;29;20051;-93
2024/01/30 01:16:16;;;;;;;26.53;15.27;;;2.80;99.90;;;;;;4920483;29;20563;-93
2024/01/30 01:18:49;;;;;;;29.43;15.93;;;3.20;99.90;;;;;;4920917;29;20078;-93
2024/01/30 01:21:15;;;;;;;27.30;15.13;;;3.60;99.90;;;;;;4920372;29;20051;-93
2024/01/30 01:23:50;;;;;;;25.90;15.70;;;4.50;99.90;;;;;;4922541;29;20043;-94
2024/01/30 01:26:31;;;;;;;28.83;15.10;;;3.50;99.90;;;;;;4922130;29;20058;-93
2024/01/30 01:29:00;;;;;;;27.40;16.40;;;3.30;99.90;;;;;;4920973;29;20075;-92
2024/01/30 01:31:31;;;;;;;24.67;14.40;;;3.10;99.90;;;;;;4920587;29;20052;-93
2024/01/30 01:33:57;;;;;;;31.13;17.50;;;4.10;99.90;;;;;;4921620;29;20040;-93
2024/01/30 01:36:32;;;;;;;27.03;16.67;;;4.10;99.90;;;;;;4920359;29;20048;-92
2024/01/30 01:38:58;;;;;;;27.30;17.43;;;4.50;99.90;;;;;;4933686;29;20046;-92
2024/01/30 01:41:23;;;;;;;32.30;18.00;;;4.30;99.90;;;;;;4928190;29;20047;-93
2024/01/30 01:43:50;;;;;;;29.13;16.93;;;3.10;99.90;;;;;;4921680;29;20060;-93
2024/01/30 01:46:17;;;;;;;28.77;17.37;;;3.90;99.90;;;;;;4919938;29;20122;-92
2024/01/30 01:48:43;;;;;;;26.37;16.53;;;2.90;99.90;;;;;;4920230;29;20040;-93
2024/01/30 01:53:42;;;;;;;25.87;16.23;;;3.10;99.90;;;;;;4941503;23;20059;-93
2024/01/30 01:56:17;;;;;;;30.17;18.27;;;3.10;99.90;;;;;;4942127;23;20059;-93
2024/01/30 01:58:46;;;;;;;27.27;17.53;;;2.70;99.90;;;;;;4939272;29;20051;-93
2024/01/30 02:01:13;;;;;;;29.90;17.30;;;3.80;99.90;;;;;;4939442;29;20594;-93
2024/01/30 02:03:51;;;;;;;29.93;17.43;;;4.60;99.90;;;;;;4938538;29;20043;-93
2024/01/30 02:06:28;;;;;;;31.87;17.43;;;3.40;99.90;;;;;;4941351;23;20051;-93
2024/01/30 02:08:54;;;;;;;29.33;17.03;;;3.20;99.90;;;;;;4935266;29;20051;-93
2024/01/30 02:11:22;;;;;;;28.93;17.27;;;3.10;99.90;;;;;;4945645;23;20150;-94
2024/01/30 02:13:50;;;;;;;27.93;17.10;;;3.50;99.90;;;;;;4960970;23;20082;-92
2024/01/30 02:16:20;;;;;;;31.07;17.20;;;4.30;99.90;;;;;;4920497;29;20377;-94
2024/01/30 02:18:48;;;;;;;32.10;18.07;;;5.10;99.90;;;;;;4919911;29;20445;-93
2024/01/30 02:21:24;;;;;;;31.10;18.63;;;2.90;99.90;;;;;;4919663;29;20080;-93
2024/01/30 02:23:52;;;;;;;30.13;17.50;;;3.10;99.90;;;;;;4919753;29;20485;-93
2024/01/30 02:26:17;;;;;;;29.53;17.97;;;3.70;99.90;;;;;;4919458;29;20377;-94
2024/01/30 02:28:46;;;;;;;29.77;17.93;;;4.30;99.90;;;;;;4921182;29;20106;-93
2024/01/30 02:31:17;;;;;;;29.20;17.27;;;3.20;99.90;;;;;;4920294;29;20102;-92
2024/01/30 02:33:43;;;;;;;31.17;18.53;;;3.90;99.90;;;;;;4919963;29;20056;-93
2024/01/30 02:36:09;;;;;;;30.33;18.33;;;4.90;99.90;;;;;;4919662;29;20074;-93
2024/01/30 02:38:35;;;;;;;30.57;17.90;;;3.50;99.90;;;;;;4920314;29;20071;-93
2024/01/30 02:41:01;;;;;;;32.00;17.80;;;4.80;99.90;;;;;;4919838;29;20051;-93
2024/01/30 02:43:27;;;;;;;31.90;19.13;;;3.10;99.90;;;;;;4941244;23;20043;-93
2024/01/30 02:46:01;;;;;;;33.27;17.60;;;4.00;99.90;;;;;;4944694;23;20065;-93
2024/01/30 02:48:29;;;;;;;30.67;18.57;;;5.50;99.90;;;;;;4939459;23;20399;-93
2024/01/30 02:50:55;;;;;;;32.47;19.03;;;3.60;99.90;;;;;;4938826;29;20055;-92
2024/01/30 02:53:26;;;;;;;34.97;20.07;;;5.40;99.90;;;;;;4939030;28;20040;-93
2024/01/30 02:55:52;;;;;;;34.80;20.20;;;3.50;99.90;;;;;;4942626;29;20087;-93
2024/01/30 02:58:18;;;;;;;37.83;19.60;;;4.30;99.90;;;;;;4937229;29;20035;-92
2024/01/30 03:00:43;;;;;;;34.93;20.07;;;3.30;99.90;;;;;;4924828;29;20095;-92
2024/01/30 03:03:12;;;;;;;32.67;19.13;;;4.80;99.90;;;;;;4942885;29;20159;-93
2024/01/30 03:05:38;;;;;;;34.77;19.70;;;3.70;99.90;;;;;;4943373;29;20406;-92
2024/01/30 03:08:05;;;;;;;32.23;20.27;;;3.50;99.90;;;;;;4943830;29;20043;-94
2024/01/30 03:10:30;;;;;;;30.90;18.90;;;4.10;99.90;;;;;;4943213;29;20518;-93
2024/01/30 03:12:59;;;;;;;32.40;20.03;;;4.10;99.90;;;;;;4942637;29;20138;-92
2024/01/30 03:16:16;;;;;;;31.90;20.00;;;5.20;99.90;;;;;;4943202;29;20055;-93
2024/01/30 03:18:52;;;;;;;35.63;20.23;;;4.70;99.90;;;;;;4865956;29;20056;-93
2024/01/30 03:21:21;;;;;;;33.77;19.80;;;3.40;99.90;;;;;;4865906;29;20120;-93
2024/01/30 03:23:53;;;;;;;33.40;19.20;;;4.90;99.90;;;;;;4865522;29;20068;-93
2024/01/30 03:26:19;;;;;;;35.60;20.20;;;5.70;99.90;;;;;;4866330;29;20064;-93
2024/01/30 03:28:52;;;;;;;36.60;19.67;;;4.50;99.90;;;;;;4866462;29;20053;-93
2024/01/30 03:31:17;;;;;;;34.08;19.30;;;5.50;99.90;;;;;;4868319;29;20049;-93
2024/01/30 03:33:46;;;;;;;33.10;19.07;;;5.70;99.90;;;;;;4972805;23;20067;-93
2024/01/30 03:38:55;;;;;;;32.23;18.83;;;4.50;99.90;;;;;;5671337;23;20074;-92
2024/01/30 03:41:23;;;;;;;35.53;19.07;;;4.70;99.90;;;;;;4942210;29;20039;-93
2024/01/30 03:43:49;;;;;;;31.70;18.93;;;5.60;99.90;;;;;;4941422;29;20050;-92
2024/01/30 03:46:15;;;;;;;34.40;20.20;;;3.80;99.90;;;;;;4935987;23;20091;-91
2024/01/30 03:48:40;;;;;;;32.00;19.37;;;6.30;99.90;;;;;;4974837;23;20138;-92
2024/01/30 03:51:06;;;;;;;35.83;18.43;;;6.00;99.90;;;;;;4922153;29;20139;-93
2024/01/30 03:53:41;;;;;;;35.13;19.13;;;4.90;99.90;;;;;;4925584;29;20047;-92
2024/01/30 03:56:26;;;;;;;30.30;18.70;;;6.20;99.90;;;;;;4933684;29;20120;-91
2024/01/30 03:58:51;;;;;;;31.93;18.57;;;4.90;99.90;;;;;;4922011;29;20067;-92
2024/01/30 04:01:17;;;;;;;33.00;18.23;;;4.90;99.90;;;;;;4923144;29;20043;-92
2024/01/30 04:03:46;;;;;;;33.40;19.03;;;4.90;99.90;;;;;;4922245;29;20052;-92
2024/01/30 04:06:15;;;;;;;31.37;18.53;;;5.40;99.90;;;;;;4920450;29;20106;-92
2024/01/30 04:08:46;;;;;;;31.90;18.40;;;5.20;99.90;;;;;;4922061;29;20492;-93
2024/01/30 04:11:19;;;;;;;29.70;18.03;;;6.70;99.90;;;;;;4921573;29;20090;-91
2024/01/30 04:13:48;;;;;;;29.73;18.60;;;6.50;99.90;;;;;;4922049;29;20055;-92
2024/01/30 04:16:23;;;;;;;29.97;17.53;;;5.10;99.90;;;;;;4921852;29;20056;-91
2024/01/30 04:18:52;;;;;;;32.50;17.63;;;5.20;99.90;;;;;;4934916;23;20059;-92
2024/01/30 04:21:18;;;;;;;27.57;17.40;;;5.80;99.90;;;;;;4942233;29;20483;-92
2024/01/30 04:23:48;;;;;;;28.13;16.93;;;5.20;99.90;;;;;;4940998;29;20043;-92
2024/01/30 04:26:19;;;;;;;28.70;16.87;;;6.90;99.90;;;;;;4940127;29;20047;-92
2024/01/30 04:28:45;;;;;;;29.47;16.87;;;5.50;99.90;;;;;;4941980;29;20039;-92
2024/01/30 04:31:20;;;;;;;30.13;17.33;;;5.30;99.90;;;;;;4952607;29;20583;-92
2024/01/30 04:33:46;;;;;;;30.60;17.00;;;6.90;99.90;;;;;;4940630;29;20518;-92
2024/01/30 04:36:50;;;;;;;30.63;16.83;;;7.10;99.90;;;;;;4940735;29;20051;-92
2024/01/30 04:39:21;;;;;;;30.15;17.70;;;5.70;99.90;;;;;;4939489;29;20210;-91
2024/01/30 04:42:13;;;;;;;26.73;16.60;;;4.60;99.90;;;;;;4941112;29;20158;-92
2024/01/30 04:44:39;;;;;;;28.33;16.60;;;5.60;99.90;;;;;;4883274;29;20053;-92
2024/01/30 04:47:11;;;;;;;28.90;16.67;;;6.60;99.90;;;;;;4882145;29;20052;-92
2024/01/30 04:49:43;;;;;;;28.10;17.57;;;6.50;99.90;;;;;;4940746;29;20048;-92
2024/01/30 04:52:09;;;;;;;29.27;15.97;;;5.40;99.90;;;;;;4944506;29;20093;-91
2024/01/30 04:54:41;;;;;;;28.73;16.83;;;4.60;99.90;;;;;;4943988;29;20086;-92
2024/01/30 04:57:16;;;;;;;25.67;15.67;;;5.50;99.90;;;;;;4939959;29;20130;-92
2024/01/30 04:59:48;;;;;;;29.30;17.00;;;7.30;99.90;;;;;;4940912;29;20043;-92
2024/01/30 05:02:19;;;;;;;27.80;15.87;;;6.60;99.90;;;;;;4928484;29;20043;-92
2024/01/30 05:04:48;;;;;;;25.90;16.10;;;6.40;99.90;;;;;;4943316;29;20047;-92
2024/01/30 05:07:20;;;;;;;26.60;16.83;;;5.10;99.90;;;;;;4945640;29;20043;-92
2024/01/30 05:09:52;;;;;;;25.60;15.73;;;6.20;99.90;;;;;;4940657;28;20043;-93
2024/01/30 05:12:17;;;;;;;31.10;17.13;;;7.00;99.90;;;;;;4940467;29;20193;-92
2024/01/30 05:14:47;;;;;;;29.03;16.27;;;7.50;99.90;;;;;;4939266;29;20499;-92
2024/01/30 05:17:16;;;;;;;28.73;17.37;;;5.70;99.90;;;;;;4939766;29;20054;-91
2024/01/30 05:19:43;;;;;;;26.90;16.30;;;7.60;99.90;;;;;;4939313;29;20070;-92
2024/01/30 05:22:18;;;;;;;28.13;16.60;;;7.10;99.90;;;;;;4940039;29;20388;-92
2024/01/30 05:24:44;;;;;;;25.70;16.43;;;7.10;99.90;;;;;;4951776;23;20052;-92
2024/01/30 05:27:35;;;;;;;30.47;16.97;;;6.30;99.90;;;;;;4934582;23;20058;-92
2024/01/30 05:30:01;;;;;;;25.53;15.40;;;5.80;99.90;;;;;;4954633;29;20055;-92
2024/01/30 05:32:43;;;;;;;26.30;15.33;;;5.60;99.90;;;;;;4946596;23;20050;-93
2024/01/30 05:35:13;;;;;;;28.50;16.77;;;4.40;99.90;;;;;;4940142;29;20093;-92
2024/01/30 05:37:41;;;;;;;25.93;16.33;;;5.70;99.90;;;;;;4964701;23;20094;-93
2024/01/30 05:40:07;;;;;;;25.97;15.70;;;6.10;99.90;;;;;;4960060;28;20504;-92
2024/01/30 05:42:42;;;;;;;24.13;15.43;;;5.70;99.90;;;;;;4959904;28;20050;-92
2024/01/30 05:45:14;;;;;;;25.97;15.53;;;7.20;99.90;;;;;;4957885;28;20103;-92
2024/01/30 05:47:43;;;;;;;25.07;14.80;;;5.90;99.90;;;;;;4952126;23;20113;-92
2024/01/30 05:50:09;;;;;;;25.23;14.97;;;7.00;99.90;;;;;;4938426;29;20070;-92
2024/01/30 05:52:35;;;;;;;25.20;15.00;;;5.70;99.90;;;;;;4939533;29;20141;-92
2024/01/30 05:55:13;;;;;;;25.83;15.80;;;7.30;99.90;;;;;;4939777;29;20093;-91
2024/01/30 05:57:41;;;;;;;26.07;15.37;;;6.00;99.90;;;;;;4940171;29;20153;-91
2024/01/30 06:00:08;;;;;;;25.97;14.70;;;6.50;99.90;;;;;;4939597;29;20070;-92
2024/01/30 06:02:35;;;;;;;25.27;14.97;;;5.80;99.90;;;;;;4938936;29;20479;-92
2024/01/30 06:05:01;;;;;;;25.37;14.37;;;6.30;99.90;;;;;;4938396;29;20051;-92
2024/01/30 06:07:52;;;;;;;24.87;15.00;;;5.90;99.90;;;;;;4945076;23;20051;-92
2024/01/30 06:10:18;;;;;;;29.23;15.30;;;4.80;99.90;;;;;;4918266;29;20432;-92
2024/01/30 06:12:44;;;;;;;26.90;15.30;;;5.80;99.90;;;;;;4937820;23;20043;-92
2024/01/30 06:15:32;;;;;;;28.07;15.10;;;7.40;99.90;;;;;;4945733;29;20047;-92
2024/01/30 06:17:58;;;;;;;26.90;15.03;;;6.00;99.90;;;;;;4945894;29;20138;-92
2024/01/30 06:27:20;;;;;;;25.27;14.30;;;5.20;99.90;;;;;;4951574;29;20055;-92
2024/01/30 06:29:49;;;;;;;25.90;13.77;;;7.60;99.90;;;;;;4939051;29;20055;-92
2024/01/30 06:32:20;;;;;;;25.27;13.90;;;6.10;99.90;;;;;;4938189;29;20062;-92
2024/01/30 06:34:49;;;;;;;27.17;15.10;;;6.40;99.90;;;;;;4939938;29;20106;-92
2024/01/30 06:37:17;;;;;;;22.30;13.40;;;7.50;99.90;;;;;;4938215;28;20070;-92
2024/01/30 06:39:46;;;;;;;25.57;14.40;;;6.60;99.90;;;;;;4942652;29;20043;-92
2024/01/30 06:42:17;;;;;;;21.80;13.43;;;8.10;99.90;;;;;;4942917;29;20627;-91
2024/01/30 06:44:43;;;;;;;22.77;13.67;;;6.20;99.90;;;;;;4953619;29;20138;-90
2024/01/30 06:47:20;;;;;;;22.90;12.07;;;6.10;99.90;;;;;;4941018;29;20102;-91
2024/01/30 06:49:46;;;;;;;22.63;12.97;;;7.50;99.90;;;;;;4941880;29;20515;-91
2024/01/30 06:52:33;;;;;;;22.47;13.27;;;8.00;99.90;;;;;;4945148;23;20047;-91
2024/01/30 06:55:02;;;;;;;22.20;11.57;;;6.70;99.90;;;;;;4936011;29;20511;-93
2024/01/30 06:57:53;;;;;;;23.37;11.30;;;6.90;99.90;;;;;;4931112;23;20047;-94
2024/01/30 07:00:23;;;;;;;20.33;10.90;;;7.30;99.90;;;;;;4916851;29;20519;-90
2024/01/30 07:03:01;;;;;;;21.33;10.80;;;7.60;99.90;;;;;;4918390;29;20052;-92
2024/01/30 07:05:26;;;;;;;20.67;11.43;;;7.20;99.90;;;;;;4918736;29;20059;-91
2024/01/30 07:07:52;;;;;;;20.00;10.60;;;8.40;99.90;;;;;;4918086;29;20039;-91
2024/01/30 07:10:24;;;;;;;20.43;10.97;;;7.00;99.90;;;;;;4919396;29;20448;-93
2024/01/30 07:12:49;;;;;;;20.17;10.83;;;7.30;99.90;;;;;;4918778;29;20150;-90
2024/01/30 07:15:19;;;;;;;21.50;11.07;;;8.20;99.90;;;;;;4918146;29;20048;-90
2024/01/30 07:17:48;;;;;;;19.33;10.67;;;7.40;99.90;;;;;;4919912;29;20138;-91
2024/01/30 07:20:16;;;;;;;22.27;10.02;;;8.50;99.90;;;;;;4923697;29;20044;-93
2024/01/30 07:22:43;;;;;;;21.73;11.07;;;7.80;99.90;;;;;;4918576;29;20408;-90
2024/01/30 07:25:09;;;;;;;19.90;10.57;;;8.60;99.90;;;;;;4918297;29;20048;-87
2024/01/30 07:27:38;;;;;;;17.90;9.80;;;7.10;99.90;;;;;;4917767;29;20063;-84
2024/01/30 07:30:04;;;;;;;22.43;10.20;;;8.40;99.90;;;;;;4917237;29;20047;-89
2024/01/30 07:32:29;;;;;;;19.77;9.43;;;7.60;99.90;;;;;;4917245;29;20079;-88
2024/01/30 07:34:55;;;;;;;20.55;9.88;;;7.40;99.90;;;;;;4917538;29;20048;-89
2024/01/30 07:37:21;;;;;;;18.25;9.63;;;7.70;99.90;;;;;;4918094;29;20493;-89
2024/01/30 07:39:47;;;;;;;22.70;10.25;;;7.80;99.90;;;;;;4918368;29;20137;-89
2024/01/30 07:42:13;;;;;;;19.30;10.03;;;8.90;99.90;;;;;;4920457;29;20130;-90
2024/01/30 07:44:38;;;;;;;19.80;10.33;;;9.10;99.90;;;;;;4921502;29;20456;-88
2024/01/30 07:47:05;;;;;;;26.83;10.80;;;8.40;99.90;;;;;;4922469;29;20138;-86
2024/01/30 07:49:32;;;;;;;20.02;10.15;;;7.80;99.90;;;;;;4920465;29;20079;-88
2024/01/30 07:52:07;;;;;;;18.50;9.70;;;8.50;99.90;;;;;;4920925;29;20050;-86
2024/01/30 07:54:47;;;;;;;20.07;9.53;;;8.80;99.90;;;;;;4920437;29;20059;-86
2024/01/30 07:57:19;;;;;;;19.35;9.65;;;8.00;99.90;;;;;;4918892;29;20054;-87
2024/01/30 07:59:48;;;;;;;19.58;9.30;;;7.90;99.90;;;;;;4904877;29;20378;-84
2024/01/30 08:02:14;;;;;;;18.15;9.50;;;8.00;99.90;;;;;;4918748;29;20048;-89
2024/01/30 08:04:40;;;;;;;20.20;10.03;;;8.70;99.90;;;;;;4901020;29;20135;-87
2024/01/30 08:07:05;;;;;;;17.13;8.93;;;8.60;99.90;;;;;;4918324;29;20048;-88
2024/01/30 08:09:31;;;;;;;19.88;8.75;;;9.10;99.90;;;;;;4902341;29;20040;-87
2024/01/30 08:11:57;;;;;;;15.90;8.77;;;9.50;99.90;;;;;;4917311;29;20048;-86
2024/01/30 08:14:23;;;;;;;18.00;9.00;;;8.70;99.90;;;;;;4901549;29;20048;-86
2024/01/30 08:16:48;;;;;;;20.17;9.95;;;8.80;99.90;;;;;;4901158;29;20048;-85
2024/01/30 08:19:19;;;;;;;17.13;9.05;;;8.20;99.90;;;;;;4916696;29;20052;-86
2024/01/30 08:21:45;;;;;;;18.33;9.85;;;9.50;99.90;;;;;;4899008;29;20102;-86
2024/01/30 08:24:10;;;;;;;17.15;8.90;;;8.10;99.90;;;;;;4900548;29;20052;-85
2024/01/30 08:26:36;;;;;;;18.83;9.43;;;9.30;99.90;;;;;;4902908;29;20052;-87
2024/01/30 08:29:02;;;;;;;17.13;9.55;;;9.40;99.90;;;;;;4901432;29;20071;-86
2024/01/30 08:31:28;;;;;;;17.35;9.27;;;8.20;99.90;;;;;;4901188;29;20047;-88
2024/01/30 08:33:54;;;;;;;18.23;8.93;;;8.20;99.90;;;;;;4918316;29;20096;-85
2024/01/30 08:36:20;;;;;;;17.15;9.35;;;8.20;99.90;;;;;;4918321;29;20509;-83
2024/01/30 08:38:46;;;;;;;17.70;9.38;;;8.30;99.90;;;;;;4917521;29;20047;-83
2024/01/30 08:41:11;;;;;;;18.55;9.60;;;8.30;99.90;;;;;;4917995;29;20453;-83
2024/01/30 08:43:37;;;;;;;17.08;8.57;;;8.30;99.90;;;;;;4918117;29;20040;-83
2024/01/30 08:46:03;;;;;;;15.90;8.52;;;8.30;99.90;;;;;;4900106;29;20052;-83
2024/01/30 08:48:29;;;;;;;17.33;9.13;;;8.30;99.90;;;;;;4918161;29;20059;-83
2024/01/30 08:50:54;;;;;;;17.30;8.82;;;8.40;99.90;;;;;;4900881;29;20044;-83
2024/01/30 08:53:20;;;;;;;18.85;8.65;;;8.40;99.90;;;;;;4899717;29;20108;-83
2024/01/30 08:55:46;;;;;;;16.63;8.13;;;9.20;99.90;;;;;;4917059;29;20394;-83
2024/01/30 08:58:11;;;;;;;17.38;8.70;;;8.50;99.90;;;;;;4920709;29;20059;-83
2024/01/30 09:00:37;;;;;;;16.00;8.70;;;8.60;99.90;;;;;;4918004;29;20040;-84
2024/01/30 09:03:05;;;;;;;17.87;8.33;;;8.60;99.90;;;;;;4918085;29;20040;-84
2024/01/30 09:05:32;;;;;;;16.00;8.60;;;8.70;99.90;;;;;;4919216;29;20039;-84
2024/01/30 09:07:58;;;;;;;15.20;8.50;;;8.70;99.90;;;;;;4917870;29;20079;-85
2024/01/30 09:10:24;;;;;;;18.40;8.43;;;8.70;99.90;;;;;;4919241;29;20455;-84
2024/01/30 09:12:49;;;;;;;17.57;9.20;;;8.80;99.90;;;;;;4919394;29;20099;-84
2024/01/30 09:15:15;;;;;;;16.53;7.97;;;8.80;99.90;;;;;;4918007;29;20122;-84
2024/01/30 09:17:41;;;;;;;17.58;8.70;;;8.90;99.90;;;;;;4918766;29;20067;-84
2024/01/30 09:20:07;;;;;;;18.20;9.00;;;8.90;99.90;;;;;;4918805;29;20123;-85
2024/01/30 09:22:32;;;;;;;16.80;8.82;;;9.00;99.90;;;;;;4918226;29;20134;-84
2024/01/30 09:24:58;;;;;;;18.75;8.90;;;9.00;99.90;;;;;;4918583;29;20245;-84
2024/01/30 09:27:24;;;;;;;17.52;8.18;;;9.10;99.90;;;;;;4918338;29;20051;-88
2024/01/30 09:29:49;;;;;;;14.82;7.88;;;9.50;99.90;;;;;;4918634;29;20055;-84
2024/01/30 09:32:15;;;;;;;15.25;7.53;;;9.10;99.90;;;;;;4919002;29;20460;-83
2024/01/30 09:34:41;;;;;;;15.68;7.63;;;9.10;99.90;;;;;;4918173;29;20086;-83
2024/01/30 09:37:07;;;;;;;15.80;8.07;;;9.10;99.90;;;;;;4918671;29;20083;-83
2024/01/30 09:39:33;;;;;;;14.80;7.75;;;9.20;99.90;;;;;;4918626;29;20503;-83
2024/01/30 09:42:14;;;;;;;15.27;8.20;;;9.20;99.90;;;;;;4917420;29;20126;-83
2024/01/30 09:44:43;;;;;;;17.17;7.75;;;9.20;99.90;;;;;;4915920;29;20075;-83
2024/01/30 09:47:08;;;;;;;13.98;7.50;;;9.30;99.90;;;;;;4918017;29;20055;-83
2024/01/30 09:49:37;;;;;;;15.32;7.55;;;9.40;99.90;;;;;;4916829;29;20647;-83
2024/01/30 09:52:05;;;;;;;15.13;7.07;;;10.00;99.90;;;;;;4917414;29;20396;-83
2024/01/30 09:54:31;;;;;;;14.18;7.50;;;9.50;99.90;;;;;;4917840;29;20127;-83
2024/01/30 09:56:57;;;;;;;15.93;7.40;;;10.80;99.90;;;;;;4917052;29;20050;-83
2024/01/30 09:59:23;;;;;;;14.15;6.57;;;9.70;99.90;;;;;;4918007;29;20060;-84
2024/01/30 10:01:51;;;;;;;14.70;7.10;;;9.70;99.90;;;;;;4918268;29;20408;-84
2024/01/30 10:04:16;;;;;;;14.75;7.50;;;10.40;99.90;;;;;;4916304;29;20036;-84
2024/01/30 10:06:42;;;;;;;16.45;7.85;;;9.70;99.90;;;;;;4917964;29;20619;-83
2024/01/30 10:09:10;;;;;;;15.25;6.95;;;9.70;99.90;;;;;;4918221;29;20054;-85
2024/01/30 10:11:36;;;;;;;16.42;7.20;;;10.80;99.90;;;;;;4917891;29;20436;-86
2024/01/30 10:14:02;;;;;;;16.23;8.05;;;9.70;99.90;;;;;;4918138;29;20052;-86
2024/01/30 10:16:28;;;;;;;19.33;8.82;;;9.70;99.90;;;;;;4918406;29;20055;-86
2024/01/30 10:18:53;;;;;;;14.90;8.00;;;9.70;99.90;;;;;;4917327;29;20040;-85
2024/01/30 10:21:19;;;;;;;16.42;7.97;;;9.70;99.90;;;;;;4918324;29;20047;-85
2024/01/30 10:23:45;;;;;;;13.45;6.72;;;9.70;99.90;;;;;;4917243;29;20456;-85
2024/01/30 10:26:10;;;;;;;18.23;7.20;;;9.70;99.90;;;;;;4917604;29;20348;-86
2024/01/30 10:28:36;;;;;;;14.23;6.60;;;9.80;99.90;;;;;;4918489;29;20057;-86
2024/01/30 10:31:05;;;;;;;13.50;5.95;;;10.30;99.90;;;;;;4917017;29;20047;-86
2024/01/30 10:33:31;;;;;;;14.65;6.63;;;9.80;99.90;;;;;;4918496;29;20098;-85
2024/01/30 10:36:04;;;;;;;16.90;6.72;;;10.80;99.90;;;;;;4918175;29;20083;-85
2024/01/30 10:38:31;;;;;;;16.00;8.38;;;9.90;99.90;;;;;;4917656;29;20054;-85
2024/01/30 10:41:01;;;;;;;15.48;7.32;;;9.90;99.90;;;;;;4918044;29;20058;-85
2024/01/30 10:43:33;;;;;;;14.60;7.13;;;10.00;99.90;;;;;;4917623;29;20091;-85
2024/01/30 10:46:08;;;;;;;14.48;7.65;;;10.00;99.90;;;;;;4917158;29;20047;-85
2024/01/30 10:48:42;;;;;;;16.45;7.45;;;10.10;99.90;;;;;;4918485;29;20070;-86
2024/01/30 10:51:09;;;;;;;14.45;7.47;;;10.20;99.90;;;;;;4917736;29;20047;-83
2024/01/30 10:53:35;;;;;;;16.70;7.55;;;10.70;99.90;;;;;;4917478;29;20086;-84
2024/01/30 10:56:03;;;;;;;15.10;7.00;;;11.10;99.90;;;;;;4917695;29;20057;-84
2024/01/30 10:58:29;;;;;;;17.15;7.55;;;10.30;99.90;;;;;;4918359;29;20083;-85
2024/01/30 11:00:56;;;;;;;15.35;7.50;;;10.60;99.90;;;;;;4934145;29;20090;-85
2024/01/30 11:03:22;;;;;;;16.08;7.72;;;11.70;99.90;;;;;;4918289;29;20151;-85
2024/01/30 11:05:52;;;;;;;16.00;7.68;;;10.40;99.90;;;;;;4917301;29;20055;-83
2024/01/30 11:08:27;;;;;;;17.85;7.68;;;10.70;99.90;;;;;;4934190;29;20043;-83
2024/01/30 11:10:57;;;;;;;15.93;7.68;;;10.50;99.90;;;;;;4916346;29;20040;-83
2024/01/30 11:13:27;;;;;;;15.98;8.02;;;10.80;99.90;;;;;;4934196;29;20054;-84
2024/01/30 11:15:53;;;;;;;15.55;7.55;;;10.50;99.90;;;;;;4919221;29;20055;-83
2024/01/30 11:18:33;;;;;;;15.23;7.93;;;10.50;99.90;;;;;;4923329;29;20078;-84
2024/01/30 11:21:05;;;;;;;15.65;8.13;;;10.60;99.90;;;;;;4940465;29;20050;-85
2024/01/30 11:23:33;;;;;;;16.88;8.13;;;10.70;99.90;;;;;;4921013;29;20134;-84
2024/01/30 11:25:58;;;;;;;15.90;7.95;;;10.50;99.90;;;;;;4920692;29;20047;-83
2024/01/30 11:28:24;;;;;;;14.80;7.00;;;10.50;99.90;;;;;;4920388;29;20051;-83
2024/01/30 11:30:52;;;;;;;17.95;7.47;;;11.60;99.90;;;;;;4920528;29;20083;-85
2024/01/30 11:33:31;;;;;;;16.05;7.63;;;10.50;99.90;;;;;;4937111;29;20105;-83
2024/01/30 11:36:01;;;;;;;18.27;7.88;;;11.10;99.90;;;;;;4937352;29;20427;-83
2024/01/30 11:38:27;;;;;;;18.08;7.72;;;10.60;99.90;;;;;;4920908;29;20043;-83
2024/01/30 11:40:57;;;;;;;17.45;7.78;;;10.60;99.90;;;;;;4920369;29;20055;-83
2024/01/30 11:43:23;;;;;;;16.13;7.90;;;10.60;99.90;;;;;;4919851;29;20059;-82
2024/01/30 11:45:49;;;;;;;17.02;7.95;;;10.70;99.90;;;;;;4935979;29;20378;-82
2024/01/30 11:48:15;;;;;;;14.68;6.97;;;10.90;99.90;;;;;;4920336;29;20059;-82
2024/01/30 11:50:41;;;;;;;19.73;7.80;;;10.60;99.90;;;;;;4937927;29;20040;-82
2024/01/30 11:53:07;;;;;;;15.25;7.68;;;10.70;99.90;;;;;;4920960;29;20571;-83
2024/01/30 11:55:33;;;;;;;18.05;8.45;;;10.70;99.90;;;;;;4920237;29;20448;-84
2024/01/30 11:57:58;;;;;;;14.48;8.23;;;10.80;99.90;;;;;;4936801;29;20501;-82
2024/01/30 12:00:25;;;;;;;15.80;8.30;;;10.80;99.90;;;;;;4920412;29;20072;-82
2024/01/30 12:02:58;;;;;;;16.55;8.20;;;10.80;99.90;;;;;;4920010;29;20047;-82
2024/01/30 12:05:24;;;;;;;14.07;7.32;;;10.80;99.90;;;;;;4919948;29;20063;-83
2024/01/30 12:07:51;;;;;;;16.45;8.25;;;10.80;99.90;;;;;;4919930;29;20048;-81
2024/01/30 12:10:17;;;;;;;16.98;7.25;;;11.40;99.90;;;;;;4919517;29;20111;-81
2024/01/30 12:12:48;;;;;;;17.48;7.35;;;10.80;99.90;;;;;;4919934;29;20458;-83
2024/01/30 12:15:15;;;;;;;17.25;7.30;;;11.60;99.90;;;;;;4914223;29;20071;-83
2024/01/30 12:17:41;;;;;;;16.55;7.60;;;10.80;99.90;;;;;;4919564;29;20371;-83
2024/01/30 12:20:12;;;;;;;18.48;8.13;;;10.70;99.90;;;;;;4917049;29;20051;-83
2024/01/30 12:22:46;;;;;;;18.30;8.95;;;10.80;99.90;;;;;;4901243;29;20139;-83
2024/01/30 12:25:17;;;;;;;18.10;8.90;;;10.90;99.90;;;;;;4900441;29;20071;-83
2024/01/30 12:27:44;;;;;;;16.88;8.02;;;10.90;99.90;;;;;;4900614;29;20094;-83
2024/01/30 12:30:12;;;;;;;18.35;8.63;;;11.00;99.90;;;;;;4901056;29;20036;-83
2024/01/30 12:32:40;;;;;;;15.43;8.10;;;11.10;99.90;;;;;;4900531;29;20049;-83
2024/01/30 12:35:09;;;;;;;17.98;9.02;;;11.80;99.90;;;;;;4901238;29;20110;-83
2024/01/30 12:37:35;;;;;;;16.08;8.23;;;11.20;99.90;;;;;;4900599;29;20056;-83
2024/01/30 12:40:01;;;;;;;18.30;8.18;;;11.30;99.90;;;;;;4901185;29;20059;-83
2024/01/30 12:42:27;;;;;;;17.15;8.10;;;11.40;99.90;;;;;;4901084;29;20036;-83
2024/01/30 12:44:53;;;;;;;14.15;7.45;;;11.70;99.90;;;;;;4900278;29;20131;-83
2024/01/30 12:47:21;;;;;;;16.85;7.50;;;11.60;99.90;;;;;;4900980;29;20079;-83
2024/01/30 12:49:47;;;;;;;15.18;7.22;;;11.50;99.90;;;;;;4912825;29;20044;-82
2024/01/30 12:52:16;;;;;;;18.33;7.88;;;11.50;99.90;;;;;;4917930;29;20059;-82
2024/01/30 12:54:42;;;;;;;15.80;7.22;;;11.50;99.90;;;;;;4919755;29;20420;-82
2024/01/30 12:57:07;;;;;;;14.68;7.35;;;11.50;99.90;;;;;;4919464;29;20050;-82
2024/01/30 12:59:34;;;;;;;15.05;7.65;;;11.50;99.90;;;;;;4918488;29;20479;-82